Time;durP1;ratioP1;P1;durP2;ratioP2;P2;SDS_P1;SDS_P2;PMS_P1;PMS_P2;Temp;Humidity;BMP_temperature;BMP_pressure;BME280_temperature;BME280_humidity;BME280_pressure;Samples;Min_cycle;Max_cycle;Signal;HPM_P1;HPM_P2
2023/02/24 00:02:04;;;;;;;0.38;0.38;;;;;;;;;;4975513;28;20057;-64
2023/02/24 00:04:32;;;;;;;1.02;0.70;;;;;;;;;;4972141;28;20031;-64
2023/02/24 00:07:00;;;;;;;0.93;0.57;;;;;;;;;;4975062;28;20104;-65
2023/02/24 00:09:27;;;;;;;1.38;0.55;;;;;;;;;;4970896;28;20399;-64
2023/02/24 00:11:54;;;;;;;1.67;0.65;;;;;;;;;;4969504;28;20031;-65
2023/02/24 00:14:21;;;;;;;1.23;0.73;;;;;;;;;;4963068;28;20034;-64
2023/02/24 00:16:47;;;;;;;0.45;0.30;;;;;;;;;;4950915;28;20098;-64
2023/02/24 00:19:17;;;;;;;0.55;0.40;;;;;;;;;;4967811;28;20030;-64
2023/02/24 00:21:44;;;;;;;1.92;0.80;;;;;;;;;;4975230;28;20023;-64
2023/02/24 00:24:11;;;;;;;0.80;0.35;;;;;;;;;;4974569;28;20038;-64
2023/02/24 00:26:38;;;;;;;6.32;1.35;;;;;;;;;;4975137;28;20034;-64
2023/02/24 00:29:06;;;;;;;1.23;0.68;;;;;;;;;;4975263;28;20023;-64
2023/02/24 00:31:33;;;;;;;8.18;0.47;;;;;;;;;;4956506;28;20023;-64
2023/02/24 00:34:00;;;;;;;2.15;0.80;;;;;;;;;;4950532;28;20034;-64
2023/02/24 00:36:28;;;;;;;1.35;0.73;;;;;;;;;;4950533;28;20027;-64
2023/02/24 00:39:00;;;;;;;8.85;0.93;;;;;;;;;;4949710;28;20027;-64
2023/02/24 00:41:28;;;;;;;2.63;1.10;;;;;;;;;;4953262;28;20393;-64
2023/02/24 00:43:56;;;;;;;0.60;0.47;;;;;;;;;;4955602;28;20736;-64
2023/02/24 00:46:24;;;;;;;4.03;0.50;;;;;;;;;;4955674;28;20074;-64
2023/02/24 00:48:54;;;;;;;0.57;0.50;;;;;;;;;;4966283;28;20470;-66
2023/02/24 00:51:23;;;;;;;1.13;0.60;;;;;;;;;;4974392;28;20079;-64
2023/02/24 00:53:51;;;;;;;1.13;0.63;;;;;;;;;;4970847;28;20038;-64
2023/02/24 00:56:17;;;;;;;0.70;0.40;;;;;;;;;;4969366;28;20041;-65
2023/02/24 00:58:44;;;;;;;1.07;0.73;;;;;;;;;;4969225;28;20044;-64
2023/02/24 01:01:13;;;;;;;4.00;1.03;;;;;;;;;;4969334;28;20101;-64
2023/02/24 01:03:40;;;;;;;0.83;0.63;;;;;;;;;;4971301;28;20035;-65
2023/02/24 01:06:07;;;;;;;1.73;0.77;;;;;;;;;;4972895;28;20118;-64
2023/02/24 01:08:37;;;;;;;1.70;0.97;;;;;;;;;;4974414;28;20030;-65
2023/02/24 01:13:48;;;;;;;;;;;;;;;;;;4974639;28;20085;-64
2023/02/24 01:16:17;;;;;;;2.43;1.57;;;;;;;;;;4969788;28;20045;-64
2023/02/24 01:18:46;;;;;;;3.10;1.17;;;;;;;;;;4969187;28;20026;-65
2023/02/24 01:21:13;;;;;;;3.30;1.07;;;;;;;;;;4968897;28;20034;-64
2023/02/24 01:23:41;;;;;;;9.73;0.83;;;;;;;;;;4968615;28;20390;-64
2023/02/24 01:26:08;;;;;;;2.67;0.93;;;;;;;;;;4970673;28;20027;-64
2023/02/24 01:28:37;;;;;;;2.13;1.00;;;;;;;;;;4959457;28;20043;-65
2023/02/24 01:31:05;;;;;;;1.47;0.97;;;;;;;;;;4973693;28;20118;-64
2023/02/24 01:33:36;;;;;;;6.67;1.77;;;;;;;;;;4972868;28;20022;-64
2023/02/24 01:36:16;;;;;;;4.07;1.03;;;;;;;;;;4972970;28;20390;-65
2023/02/24 01:38:43;;;;;;;4.17;0.93;;;;;;;;;;4956611;28;20384;-64
2023/02/24 01:41:15;;;;;;;33.23;1.73;;;;;;;;;;4968317;28;20031;-64
2023/02/24 01:43:54;;;;;;;3.27;1.40;;;;;;;;;;4968777;28;20077;-64
2023/02/24 01:46:22;;;;;;;3.50;1.20;;;;;;;;;;4967940;28;20018;-65
2023/02/24 01:48:53;;;;;;;4.17;1.57;;;;;;;;;;4970333;28;20495;-64
2023/02/24 01:51:20;;;;;;;1.00;0.90;;;;;;;;;;4972761;28;20414;-64
2023/02/24 01:53:48;;;;;;;3.17;1.57;;;;;;;;;;4973179;28;20023;-64
2023/02/24 01:56:15;;;;;;;1.90;1.30;;;;;;;;;;4973597;28;20034;-64
2023/02/24 01:58:43;;;;;;;1.80;1.13;;;;;;;;;;4972987;28;20031;-64
2023/02/24 02:01:10;;;;;;;0.70;0.60;;;;;;;;;;4967928;28;20031;-64
2023/02/24 02:03:40;;;;;;;2.33;1.00;;;;;;;;;;4967954;28;20041;-64
2023/02/24 02:06:10;;;;;;;6.20;1.30;;;;;;;;;;4967152;28;20413;-65
2023/02/24 02:08:38;;;;;;;1.63;1.20;;;;;;;;;;4967659;28;20050;-64
2023/02/24 02:11:06;;;;;;;2.53;1.30;;;;;;;;;;4971746;28;20438;-64
2023/02/24 02:13:34;;;;;;;8.87;1.40;;;;;;;;;;4971904;28;20018;-64
2023/02/24 02:16:10;;;;;;;5.27;1.30;;;;;;;;;;4973161;28;20039;-64
2023/02/24 02:18:37;;;;;;;2.33;1.07;;;;;;;;;;4973345;28;20031;-64
2023/02/24 02:21:36;;;;;;;2.70;1.00;;;;;;;;;;4973363;28;20062;-64
2023/02/24 02:24:11;;;;;;;7.00;1.40;;;;;;;;;;4966917;28;20390;-64
2023/02/24 02:26:56;;;;;;;3.67;1.33;;;;;;;;;;4968028;28;20157;-64
2023/02/24 02:29:29;;;;;;;3.63;1.60;;;;;;;;;;4968231;28;20081;-64
2023/02/24 02:31:56;;;;;;;5.60;1.90;;;;;;;;;;4968281;28;20030;-64
2023/02/24 02:34:31;;;;;;;2.47;1.20;;;;;;;;;;4972391;28;20106;-64
2023/02/24 02:37:08;;;;;;;2.57;1.20;;;;;;;;;;4954211;28;20038;-64
2023/02/24 02:39:49;;;;;;;2.30;1.23;;;;;;;;;;4965646;28;20371;-64
2023/02/24 02:42:17;;;;;;;4.67;1.87;;;;;;;;;;4971841;28;20086;-64
2023/02/24 02:44:54;;;;;;;18.97;2.00;;;;;;;;;;4970107;28;20136;-64
2023/02/24 02:47:24;;;;;;;2.40;1.50;;;;;;;;;;4967508;28;20038;-63
2023/02/24 02:50:17;;;;;;;1.47;1.10;;;;;;;;;;4967773;28;20074;-64
2023/02/24 02:52:49;;;;;;;6.27;2.23;;;;;;;;;;4961140;28;20118;-63
2023/02/24 02:55:22;;;;;;;6.43;1.50;;;;;;;;;;4970678;28;20031;-64
2023/02/24 02:57:50;;;;;;;1.50;1.23;;;;;;;;;;4972335;28;20106;-64
2023/02/24 03:00:20;;;;;;;3.87;1.43;;;;;;;;;;4972641;28;20426;-63
2023/02/24 03:02:50;;;;;;;2.03;1.33;;;;;;;;;;4972047;28;20039;-63
2023/02/24 03:05:20;;;;;;;1.37;1.00;;;;;;;;;;4975080;28;20062;-63
2023/02/24 03:07:50;;;;;;;1.43;1.07;;;;;;;;;;4972051;28;20027;-63
2023/02/24 03:10:22;;;;;;;1.83;1.00;;;;;;;;;;4970819;28;20034;-63
2023/02/24 03:12:51;;;;;;;7.63;1.77;;;;;;;;;;4970557;28;20486;-64
2023/02/24 03:15:20;;;;;;;2.33;1.17;;;;;;;;;;4970432;28;20018;-63
2023/02/24 03:17:48;;;;;;;2.40;1.47;;;;;;;;;;4973112;28;20556;-64
2023/02/24 03:20:47;;;;;;;3.17;1.67;;;;;;;;;;4975042;28;20034;-63
2023/02/24 03:23:25;;;;;;;5.23;1.43;;;;;;;;;;4940216;28;20041;-63
2023/02/24 03:25:58;;;;;;;5.50;1.97;;;;;;;;;;4974421;28;20371;-64
2023/02/24 03:28:36;;;;;;;4.63;1.03;;;;;;;;;;4974619;28;20019;-63
2023/02/24 03:31:09;;;;;;;5.00;1.47;;;;;;;;;;4970651;28;20086;-64
2023/02/24 03:33:45;;;;;;;1.80;1.17;;;;;;;;;;4969515;28;20102;-64
2023/02/24 03:36:13;;;;;;;14.93;1.23;;;;;;;;;;4953773;28;20024;-63
2023/02/24 03:38:41;;;;;;;2.10;1.13;;;;;;;;;;4970763;28;20042;-63
2023/02/24 03:41:10;;;;;;;1.73;1.00;;;;;;;;;;4976091;28;20026;-64
2023/02/24 03:43:39;;;;;;;11.03;0.93;;;;;;;;;;4975164;28;20482;-63
2023/02/24 03:46:06;;;;;;;5.90;1.57;;;;;;;;;;4975338;28;20031;-63
2023/02/24 03:48:34;;;;;;;2.47;1.23;;;;;;;;;;4974431;28;20078;-65
2023/02/24 03:51:02;;;;;;;2.20;1.40;;;;;;;;;;4974095;28;20393;-63
2023/02/24 03:53:42;;;;;;;6.77;0.97;;;;;;;;;;4969209;28;20125;-64
2023/02/24 03:56:28;;;;;;;3.60;1.40;;;;;;;;;;4970111;28;20033;-64
2023/02/24 03:59:08;;;;;;;1.43;0.77;;;;;;;;;;4970396;28;20031;-63
2023/02/24 04:01:56;;;;;;;2.00;1.00;;;;;;;;;;4972032;28;20066;-64
2023/02/24 04:04:35;;;;;;;3.87;1.30;;;;;;;;;;4974972;28;20031;-63
2023/02/24 04:07:11;;;;;;;15.93;0.97;;;;;;;;;;4975494;28;20023;-64
2023/02/24 04:09:38;;;;;;;10.03;1.27;;;;;;;;;;4974456;28;20023;-63
2023/02/24 04:12:07;;;;;;;11.10;2.03;;;;;;;;;;4973772;28;20436;-64
2023/02/24 04:14:40;;;;;;;4.47;1.83;;;;;;;;;;4971078;28;20036;-63
2023/02/24 04:17:30;;;;;;;2.53;1.03;;;;;;;;;;4969924;28;20029;-64
2023/02/24 04:19:58;;;;;;;13.23;1.13;;;;;;;;;;4950677;28;20425;-63
2023/02/24 04:22:26;;;;;;;2.40;1.37;;;;;;;;;;4969622;28;20469;-65
2023/02/24 04:24:56;;;;;;;2.50;1.10;;;;;;;;;;4972539;28;20038;-63
2023/02/24 04:27:24;;;;;;;0.47;0.43;;;;;;;;;;4974795;28;20062;-63
2023/02/24 04:29:52;;;;;;;1.03;0.73;;;;;;;;;;4975125;28;20089;-64
2023/02/24 04:32:21;;;;;;;5.53;1.50;;;;;;;;;;4974235;28;20031;-63
2023/02/24 04:34:48;;;;;;;3.47;1.57;;;;;;;;;;4975002;28;20062;-63
2023/02/24 04:37:15;;;;;;;5.00;1.33;;;;;;;;;;4970617;28;20035;-63
2023/02/24 04:39:43;;;;;;;1.97;1.00;;;;;;;;;;4969748;28;20034;-64
2023/02/24 04:42:10;;;;;;;1.33;0.83;;;;;;;;;;4969281;28;20781;-63
2023/02/24 04:44:37;;;;;;;2.67;1.23;;;;;;;;;;4969578;28;20046;-63
2023/02/24 04:47:03;;;;;;;1.93;1.07;;;;;;;;;;4973042;28;20034;-63
2023/02/24 04:49:30;;;;;;;3.23;1.27;;;;;;;;;;4974751;28;20031;-63
2023/02/24 04:51:57;;;;;;;7.23;1.10;;;;;;;;;;4974375;28;20390;-63
2023/02/24 04:54:23;;;;;;;0.80;0.70;;;;;;;;;;4974433;28;20105;-64
2023/02/24 04:56:51;;;;;;;10.00;1.57;;;;;;;;;;4974538;28;20038;-63
2023/02/24 04:59:19;;;;;;;2.70;1.30;;;;;;;;;;4970464;28;20113;-63
2023/02/24 05:01:46;;;;;;;4.17;1.50;;;;;;;;;;4969002;28;20363;-63
2023/02/24 05:04:13;;;;;;;2.17;1.00;;;;;;;;;;4969133;28;20490;-63
2023/02/24 05:06:43;;;;;;;2.33;1.17;;;;;;;;;;4969391;28;20022;-63
2023/02/24 05:09:17;;;;;;;2.73;1.07;;;;;;;;;;4972214;28;20026;-63
2023/02/24 05:11:45;;;;;;;2.27;1.10;;;;;;;;;;4973380;28;20027;-63
2023/02/24 05:14:16;;;;;;;1.60;0.93;;;;;;;;;;4973653;28;20114;-63
2023/02/24 05:16:43;;;;;;;0.50;0.30;;;;;;;;;;4974225;28;20023;-63
2023/02/24 05:21:58;;;;;;;2.20;1.07;;;;;;;;;;4968757;28;20093;-64
2023/02/24 05:24:28;;;;;;;2.00;0.97;;;;;;;;;;4968148;28;20034;-64
2023/02/24 05:26:58;;;;;;;1.00;0.90;;;;;;;;;;4969141;28;20049;-64
2023/02/24 05:29:29;;;;;;;4.03;1.30;;;;;;;;;;4968637;28;20044;-63
2023/02/24 05:31:59;;;;;;;2.13;0.60;;;;;;;;;;4972822;28;20029;-63
2023/02/24 05:34:29;;;;;;;0.60;0.50;;;;;;;;;;4973857;28;20061;-63
2023/02/24 05:36:57;;;;;;;3.57;0.93;;;;;;;;;;4973658;28;20027;-63
2023/02/24 05:39:25;;;;;;;1.80;0.97;;;;;;;;;;4973541;28;20023;-63
2023/02/24 05:41:56;;;;;;;1.63;0.83;;;;;;;;;;4973910;28;20445;-63
2023/02/24 05:44:24;;;;;;;2.03;0.63;;;;;;;;;;4968749;28;20043;-63
2023/02/24 05:46:56;;;;;;;1.60;0.70;;;;;;;;;;4968535;28;20034;-63
2023/02/24 05:49:26;;;;;;;4.53;1.30;;;;;;;;;;4967916;28;20110;-63
2023/02/24 05:51:54;;;;;;;9.03;1.60;;;;;;;;;;4968619;28;20089;-63
2023/02/24 05:54:22;;;;;;;1.47;0.93;;;;;;;;;;4972852;28;20030;-63
2023/02/24 05:56:49;;;;;;;4.00;1.53;;;;;;;;;;4973868;28;20030;-63
2023/02/24 05:59:20;;;;;;;1.13;0.67;;;;;;;;;;4973524;28;20043;-63
2023/02/24 06:01:47;;;;;;;1.87;0.93;;;;;;;;;;4973071;28;20065;-64
2023/02/24 06:07:19;;;;;;;1.13;0.70;;;;;;;;;;4916921;28;20086;-64
2023/02/24 06:09:52;;;;;;;1.50;0.50;;;;;;;;;;4968005;28;20027;-64
2023/02/24 06:12:20;;;;;;;0.60;0.50;;;;;;;;;;4957935;28;20027;-64
2023/02/24 06:14:47;;;;;;;1.63;0.37;;;;;;;;;;4968781;28;20026;-64
2023/02/24 06:17:18;;;;;;;4.57;1.00;;;;;;;;;;4957346;28;20031;-65
2023/02/24 06:19:46;;;;;;;0.30;0.30;;;;;;;;;;4954370;28;20023;-63
2023/02/24 06:22:14;;;;;;;0.80;0.47;;;;;;;;;;4954114;28;20074;-63
2023/02/24 06:24:44;;;;;;;1.87;1.00;;;;;;;;;;4953967;28;20482;-63
2023/02/24 06:27:16;;;;;;;2.07;1.23;;;;;;;;;;4952638;28;20550;-64
2023/02/24 06:29:43;;;;;;;0.67;0.47;;;;;;;;;;4967465;28;20073;-63
2023/02/24 06:32:10;;;;;;;0.67;0.63;;;;;;;;;;4968368;28;20027;-64
2023/02/24 06:34:37;;;;;;;1.63;0.83;;;;;;;;;;4968358;28;20167;-63
2023/02/24 06:37:06;;;;;;;0.53;0.43;;;;;;;;;;4971322;28;20059;-64
2023/02/24 06:39:33;;;;;;;2.13;0.90;;;;;;;;;;4977293;28;20027;-63
2023/02/24 06:42:04;;;;;;;1.63;0.60;;;;;;;;;;4976625;28;20027;-63
2023/02/24 06:44:31;;;;;;;0.80;0.60;;;;;;;;;;4976906;28;20061;-64
2023/02/24 06:46:58;;;;;;;1.20;0.60;;;;;;;;;;4977234;28;20536;-63
2023/02/24 06:49:25;;;;;;;1.13;0.63;;;;;;;;;;4976080;28;20351;-63
2023/02/24 06:51:53;;;;;;;1.90;0.80;;;;;;;;;;4971886;28;20085;-64
2023/02/24 06:54:24;;;;;;;2.87;1.00;;;;;;;;;;4969617;28;20037;-62
2023/02/24 06:56:51;;;;;;;0.80;0.60;;;;;;;;;;4961471;28;20023;-62
2023/02/24 06:59:20;;;;;;;0.60;0.60;;;;;;;;;;4970547;28;20020;-62
2023/02/24 07:01:48;;;;;;;0.83;0.70;;;;;;;;;;4959625;28;20062;-62
2023/02/24 07:04:21;;;;;;;0.73;0.50;;;;;;;;;;4970592;28;20519;-61
2023/02/24 07:07:02;;;;;;;10.67;0.97;;;;;;;;;;4976804;28;20029;-61
2023/02/24 07:09:29;;;;;;;2.23;0.83;;;;;;;;;;4976137;28;20026;-62
2023/02/24 07:11:57;;;;;;;1.10;0.80;;;;;;;;;;4975247;28;20029;-61
2023/02/24 07:14:25;;;;;;;0.73;0.60;;;;;;;;;;4971006;28;20039;-62
2023/02/24 07:16:56;;;;;;;0.30;0.30;;;;;;;;;;4971483;28;20430;-62
2023/02/24 07:19:25;;;;;;;4.13;0.93;;;;;;;;;;4971439;28;20022;-62
2023/02/24 07:21:58;;;;;;;2.73;0.97;;;;;;;;;;4972063;28;20504;-61
2023/02/24 07:24:31;;;;;;;1.70;1.10;;;;;;;;;;4976556;28;20038;-61
2023/02/24 07:27:03;;;;;;;0.63;0.50;;;;;;;;;;4976320;28;20046;-61
2023/02/24 07:29:31;;;;;;;2.47;0.73;;;;;;;;;;4976246;28;20023;-62
2023/02/24 07:32:00;;;;;;;0.70;0.60;;;;;;;;;;4976038;28;20498;-61
2023/02/24 07:34:27;;;;;;;1.53;0.73;;;;;;;;;;4973639;28;20035;-62
2023/02/24 07:36:54;;;;;;;0.87;0.60;;;;;;;;;;4971150;28;20027;-62
2023/02/24 07:39:22;;;;;;;5.83;1.17;;;;;;;;;;4970844;28;20037;-61
2023/02/24 07:41:50;;;;;;;0.40;0.30;;;;;;;;;;4970997;28;20081;-61
2023/02/24 07:44:18;;;;;;;1.10;0.77;;;;;;;;;;4972372;28;20031;-61
2023/02/24 07:46:45;;;;;;;1.20;0.80;;;;;;;;;;4975729;28;20101;-61
2023/02/24 07:49:18;;;;;;;0.73;0.50;;;;;;;;;;4975356;28;20065;-62
2023/02/24 07:51:46;;;;;;;0.93;0.33;;;;;;;;;;4975933;28;20030;-61
2023/02/24 07:54:14;;;;;;;0.67;0.60;;;;;;;;;;4975993;28;20019;-62
2023/02/24 07:57:02;;;;;;;2.50;0.70;;;;;;;;;;4973360;28;20027;-61
2023/02/24 07:59:36;;;;;;;0.33;0.33;;;;;;;;;;4969692;28;20097;-61
2023/02/24 08:02:06;;;;;;;0.40;0.33;;;;;;;;;;4970513;28;20034;-61
2023/02/24 08:04:35;;;;;;;0.27;0.20;;;;;;;;;;4970600;28;20058;-62
2023/02/24 08:07:02;;;;;;;0.97;0.60;;;;;;;;;;4972692;28;20050;-61
2023/02/24 08:10:08;;;;;;;2.33;0.80;;;;;;;;;;4975278;28;20081;-62
2023/02/24 08:12:33;;;;;;;0.43;0.40;;;;;;;;;;4975515;28;20039;-61
2023/02/24 08:15:07;;;;;;;0.80;0.60;;;;;;;;;;4975381;28;20042;-61
2023/02/24 08:17:35;;;;;;;0.90;0.47;;;;;;;;;;4975546;28;20030;-62
2023/02/24 08:22:50;;;;;;;0.97;0.70;;;;;;;;;;4969944;28;20026;-61
2023/02/24 08:25:18;;;;;;;7.10;0.53;;;;;;;;;;4970299;28;20121;-61
2023/02/24 08:27:57;;;;;;;1.03;0.83;;;;;;;;;;4969876;28;20066;-62
2023/02/24 08:30:28;;;;;;;0.20;0.20;;;;;;;;;;4955475;28;20027;-61
2023/02/24 08:32:56;;;;;;;1.43;0.70;;;;;;;;;;4956102;28;20023;-61
2023/02/24 08:35:34;;;;;;;0.50;0.40;;;;;;;;;;4955752;28;20027;-61
2023/02/24 08:38:03;;;;;;;1.97;0.73;;;;;;;;;;4955923;29;20015;-62
2023/02/24 08:43:14;;;;;;;1.00;0.63;;;;;;;;;;4950521;28;20506;-61
2023/02/24 08:45:45;;;;;;;0.70;0.63;;;;;;;;;;4950479;28;20050;-61
2023/02/24 08:48:25;;;;;;;0.67;0.60;;;;;;;;;;4950613;28;20446;-61
2023/02/24 08:50:53;;;;;;;3.70;1.10;;;;;;;;;;4951217;28;20031;-62
2023/02/24 08:53:19;;;;;;;0.93;0.57;;;;;;;;;;4969921;28;20561;-62
2023/02/24 08:55:50;;;;;;;1.80;0.63;;;;;;;;;;4974801;28;20023;-62
2023/02/24 08:58:25;;;;;;;0.70;0.53;;;;;;;;;;4974069;28;20073;-61
2023/02/24 09:00:58;;;;;;;0.70;0.50;;;;;;;;;;4974587;28;20027;-61
2023/02/24 09:03:27;;;;;;;0.47;0.43;;;;;;;;;;4972691;28;20023;-62
2023/02/24 09:06:04;;;;;;;0.33;0.33;;;;;;;;;;4969452;28;20503;-61
2023/02/24 09:08:31;;;;;;;1.57;0.67;;;;;;;;;;4969496;28;20030;-61
2023/02/24 09:10:59;;;;;;;0.87;0.60;;;;;;;;;;4969344;28;20035;-61
2023/02/24 09:13:32;;;;;;;0.30;0.30;;;;;;;;;;4970863;28;20033;-61
2023/02/24 09:16:01;;;;;;;0.67;0.63;;;;;;;;;;4974357;28;20081;-61
2023/02/24 09:18:37;;;;;;;0.93;0.60;;;;;;;;;;4974225;28;20103;-61
2023/02/24 09:23:47;;;;;;;1.03;0.57;;;;;;;;;;4973892;28;20119;-61
2023/02/24 09:26:14;;;;;;;2.80;0.87;;;;;;;;;;4971223;28;20613;-61
2023/02/24 09:28:54;;;;;;;1.77;0.83;;;;;;;;;;4969061;28;20050;-62
2023/02/24 09:31:39;;;;;;;0.57;0.50;;;;;;;;;;4968867;28;20059;-62
2023/02/24 09:34:09;;;;;;;1.83;0.70;;;;;;;;;;4968491;28;20027;-61
2023/02/24 09:36:43;;;;;;;1.67;0.60;;;;;;;;;;4972321;28;20109;-61
2023/02/24 09:39:13;;;;;;;1.60;0.82;;;;;;;;;;4973967;28;20115;-62
2023/02/24 09:41:53;;;;;;;0.57;0.40;;;;;;;;;;4973930;28;20106;-61
2023/02/24 09:44:36;;;;;;;1.90;1.40;;;;;;;;;;4973541;28;20027;-61
2023/02/24 09:47:09;;;;;;;3.73;1.33;;;;;;;;;;4973896;28;20086;-61
2023/02/24 09:49:57;;;;;;;0.97;0.73;;;;;;;;;;4968371;28;20106;-62
2023/02/24 09:52:38;;;;;;;0.53;0.50;;;;;;;;;;4949115;28;20383;-61
2023/02/24 09:55:28;;;;;;;2.40;1.13;;;;;;;;;;4949476;28;20110;-61
2023/02/24 10:00:54;;;;;;;0.50;0.50;;;;;;;;;;4949626;28;20093;-62
2023/02/24 10:03:46;;;;;;;0.97;0.63;;;;;;;;;;4954280;28;20261;-61
2023/02/24 10:06:19;;;;;;;0.83;0.30;;;;;;;;;;4964767;28;20068;-61
2023/02/24 10:09:12;;;;;;;5.53;1.10;;;;;;;;;;4973669;28;20035;-61
2023/02/24 10:11:52;;;;;;;0.47;0.47;;;;;;;;;;4961894;28;20059;-62
2023/02/24 10:14:26;;;;;;;1.07;0.53;;;;;;;;;;4968622;28;20054;-61
2023/02/24 10:19:40;;;;;;;1.10;0.77;;;;;;;;;;4968812;28;20292;-61
2023/02/24 10:22:21;;;;;;;0.90;0.63;;;;;;;;;;4973310;28;20268;-61
2023/02/24 10:25:00;;;;;;;1.53;0.57;;;;;;;;;;4973406;28;20289;-61
2023/02/24 10:27:35;;;;;;;0.83;0.60;;;;;;;;;;4973469;28;20269;-61
2023/02/24 10:30:09;;;;;;;0.75;0.50;;;;;;;;;;4973271;28;20268;-61
2023/02/24 10:32:45;;;;;;;2.53;1.13;;;;;;;;;;4971002;28;20034;-61
2023/02/24 10:35:15;;;;;;;0.87;0.57;;;;;;;;;;4968533;28;20409;-61
2023/02/24 10:37:42;;;;;;;0.60;0.50;;;;;;;;;;4968191;28;20284;-61
2023/02/24 10:40:11;;;;;;;0.60;0.50;;;;;;;;;;4967781;28;20311;-62
2023/02/24 10:42:48;;;;;;;0.60;0.60;;;;;;;;;;4970350;28;20261;-61
2023/02/24 10:45:26;;;;;;;0.57;0.50;;;;;;;;;;4973403;28;20775;-61
2023/02/24 10:47:57;;;;;;;2.17;1.00;;;;;;;;;;4973386;28;20299;-61
2023/02/24 10:50:26;;;;;;;1.23;0.80;;;;;;;;;;4972858;28;20656;-61
2023/02/24 10:59:19;;;;;;;3.50;1.30;;;;;;;;;;4967937;28;20323;-61
2023/02/24 11:01:23;;;;;;;1.37;0.83;;;;;;;;;;4964916;28;20516;-61
2023/02/24 11:04:11;;;;;;;1.42;0.70;;;;;;;;;;4967925;28;20296;-61
2023/02/24 11:17:25;;;;;;;0.73;0.70;;;;;;;;;;4970313;28;19929;-62
2023/02/24 11:19:58;;;;;;;0.70;0.57;;;;;;;;;;4967881;28;20280;-61
2023/02/24 11:22:31;;;;;;;0.83;0.77;;;;;;;;;;4968685;28;20268;-61
2023/02/24 11:25:03;;;;;;;7.53;1.37;;;;;;;;;;4971184;28;20292;-61
2023/02/24 11:27:30;;;;;;;0.93;0.70;;;;;;;;;;4974041;28;20256;-62
2023/02/24 11:30:05;;;;;;;2.13;0.77;;;;;;;;;;4976448;28;20269;-61
2023/02/24 11:32:31;;;;;;;1.50;1.08;;;;;;;;;;4975625;28;20261;-61
2023/02/24 11:35:12;;;;;;;0.83;0.83;;;;;;;;;;4976376;28;20986;-61
2023/02/24 11:37:41;;;;;;;4.07;0.97;;;;;;;;;;4975710;28;20280;-61
2023/02/24 11:40:17;;;;;;;1.67;0.83;;;;;;;;;;4971851;28;20328;-61
2023/02/24 11:42:53;;;;;;;0.90;0.60;;;;;;;;;;4970759;28;20631;-61
2023/02/24 11:45:28;;;;;;;0.80;0.70;;;;;;;;;;4970920;28;20355;-61
2023/02/24 11:47:58;;;;;;;1.52;1.02;;;;;;;;;;4970562;28;20277;-61
2023/02/24 11:50:29;;;;;;;2.20;1.33;;;;;;;;;;4975249;28;20027;-62
2023/02/24 11:52:57;;;;;;;0.73;0.50;;;;;;;;;;4975968;28;20316;-61
2023/02/24 11:55:33;;;;;;;2.13;1.33;;;;;;;;;;4975647;28;20265;-61
2023/02/24 11:58:03;;;;;;;1.77;1.30;;;;;;;;;;4975770;28;20292;-62
2023/02/24 12:00:32;;;;;;;2.00;1.57;;;;;;;;;;4975472;28;20248;-61
2023/02/24 12:03:03;;;;;;;1.27;0.83;;;;;;;;;;4970577;28;20261;-61
2023/02/24 12:05:39;;;;;;;1.90;1.13;;;;;;;;;;4970179;28;20328;-61
2023/02/24 12:08:18;;;;;;;0.40;0.40;;;;;;;;;;4970519;28;20275;-61
2023/02/24 12:10:51;;;;;;;1.03;0.80;;;;;;;;;;4970789;28;20804;-61
2023/02/24 12:13:24;;;;;;;0.73;0.60;;;;;;;;;;4975676;28;20256;-61
2023/02/24 12:15:56;;;;;;;1.13;0.80;;;;;;;;;;4975088;28;20648;-61
2023/02/24 12:18:33;;;;;;;1.90;1.20;;;;;;;;;;4975579;28;20299;-61
2023/02/24 12:21:09;;;;;;;2.27;0.93;;;;;;;;;;4975317;28;20639;-61
2023/02/24 12:23:39;;;;;;;1.77;1.00;;;;;;;;;;4972990;28;20323;-61
2023/02/24 12:26:09;;;;;;;5.60;0.97;;;;;;;;;;4969830;28;20696;-61
2023/02/24 12:28:35;;;;;;;1.07;0.80;;;;;;;;;;4970533;28;20877;-61
2023/02/24 12:31:22;;;;;;;1.07;0.77;;;;;;;;;;4969830;28;20276;-61
2023/02/24 12:33:49;;;;;;;1.60;1.07;;;;;;;;;;4941182;28;20257;-61
2023/02/24 12:36:19;;;;;;;1.17;0.67;;;;;;;;;;4974740;28;20280;-62
2023/02/24 12:38:49;;;;;;;1.77;1.00;;;;;;;;;;4974938;28;20315;-61
2023/02/24 12:41:31;;;;;;;0.83;0.70;;;;;;;;;;4974779;28;20268;-61
2023/02/24 12:44:16;;;;;;;0.73;0.70;;;;;;;;;;4974869;28;20787;-61
2023/02/24 12:46:44;;;;;;;1.40;0.73;;;;;;;;;;4971053;28;20323;-61
2023/02/24 12:49:26;;;;;;;1.60;1.13;;;;;;;;;;4969813;28;20101;-61
2023/02/24 12:52:11;;;;;;;1.83;1.03;;;;;;;;;;4969693;28;20689;-61
2023/02/24 12:54:52;;;;;;;1.58;0.95;;;;;;;;;;4969250;28;20264;-61
2023/02/24 12:57:32;;;;;;;2.03;1.20;;;;;;;;;;4974554;28;20514;-61
2023/02/24 13:00:04;;;;;;;2.23;0.90;;;;;;;;;;4974578;28;20303;-61
2023/02/24 13:02:42;;;;;;;2.40;1.57;;;;;;;;;;4973967;28;20268;-61
2023/02/24 13:05:23;;;;;;;14.23;1.77;;;;;;;;;;4974504;28;20621;-61
2023/02/24 13:07:53;;;;;;;0.60;0.60;;;;;;;;;;4972798;28;20661;-61
2023/02/24 13:10:29;;;;;;;2.77;1.63;;;;;;;;;;4969152;28;20295;-61
2023/02/24 13:13:02;;;;;;;2.80;1.07;;;;;;;;;;4969356;28;20288;-61
2023/02/24 13:15:32;;;;;;;1.57;1.00;;;;;;;;;;4969223;28;20273;-62
2023/02/24 13:17:59;;;;;;;8.10;1.00;;;;;;;;;;4971034;28;20656;-61
2023/02/24 13:20:29;;;;;;;3.53;1.00;;;;;;;;;;4974508;28;20671;-61
2023/02/24 13:22:56;;;;;;;1.83;1.30;;;;;;;;;;4973971;28;20612;-61
2023/02/24 13:25:25;;;;;;;0.93;0.67;;;;;;;;;;4973862;28;20290;-61
2023/02/24 13:28:00;;;;;;;4.03;1.43;;;;;;;;;;4974261;28;20743;-61
2023/02/24 13:30:30;;;;;;;3.35;1.58;;;;;;;;;;4971014;28;20646;-61
2023/02/24 13:33:15;;;;;;;5.53;1.30;;;;;;;;;;4969004;28;20073;-61
2023/02/24 13:35:42;;;;;;;3.78;1.88;;;;;;;;;;4968991;28;20303;-61
2023/02/24 13:38:21;;;;;;;14.53;3.37;;;;;;;;;;4969099;28;20106;-61
2023/02/24 13:40:48;;;;;;;5.03;2.50;;;;;;;;;;4971855;28;20264;-61
2023/02/24 13:43:26;;;;;;;8.73;1.87;;;;;;;;;;4973950;28;20263;-61
2023/02/24 13:45:57;;;;;;;7.57;1.37;;;;;;;;;;4973282;28;20610;-61
2023/02/24 13:48:37;;;;;;;5.00;1.97;;;;;;;;;;4973743;28;20272;-62
2023/02/24 13:51:22;;;;;;;2.87;1.90;;;;;;;;;;4973871;28;20696;-62
2023/02/24 13:54:07;;;;;;;14.35;2.42;;;;;;;;;;4968762;28;20375;-62
2023/02/24 13:56:40;;;;;;;2.45;1.33;;;;;;;;;;4968696;28;20038;-62
2023/02/24 13:59:25;;;;;;;2.17;0.90;;;;;;;;;;4968661;28;20027;-62
2023/02/24 14:02:03;;;;;;;1.25;0.80;;;;;;;;;;4969260;28;20037;-61
2023/02/24 14:04:33;;;;;;;1.27;0.90;;;;;;;;;;4973203;28;20093;-62
2023/02/24 14:07:04;;;;;;;1.83;1.10;;;;;;;;;;4973555;28;20043;-62
2023/02/24 14:09:34;;;;;;;3.37;1.47;;;;;;;;;;4973136;28;20446;-62
2023/02/24 14:12:04;;;;;;;2.83;1.33;;;;;;;;;;4973537;28;20425;-61
2023/02/24 14:14:31;;;;;;;2.10;0.90;;;;;;;;;;4971663;28;20094;-62
2023/02/24 14:16:58;;;;;;;2.93;1.50;;;;;;;;;;4968318;28;20046;-61
2023/02/24 14:19:25;;;;;;;11.23;1.70;;;;;;;;;;4968467;28;20041;-61
2023/02/24 14:21:54;;;;;;;2.83;1.47;;;;;;;;;;4968204;28;20027;-62
2023/02/24 14:24:21;;;;;;;4.20;2.13;;;;;;;;;;4969401;28;20033;-62
2023/02/24 14:26:50;;;;;;;1.77;1.10;;;;;;;;;;4973566;28;20597;-61
2023/02/24 14:29:25;;;;;;;1.93;0.93;;;;;;;;;;4973177;28;20038;-61
2023/02/24 14:31:55;;;;;;;4.03;1.60;;;;;;;;;;4973401;28;20035;-62
2023/02/24 14:34:23;;;;;;;4.40;2.07;;;;;;;;;;4973397;28;20385;-62
2023/02/24 14:36:51;;;;;;;6.67;2.57;;;;;;;;;;4970939;28;20065;-62
2023/02/24 14:39:18;;;;;;;3.87;2.07;;;;;;;;;;4968123;28;20030;-62
2023/02/24 14:41:46;;;;;;;8.57;2.00;;;;;;;;;;4967834;28;20031;-61
2023/02/24 14:44:19;;;;;;;4.50;2.13;;;;;;;;;;4968129;28;20570;-62
2023/02/24 14:46:47;;;;;;;4.53;1.80;;;;;;;;;;4969923;28;20383;-62
2023/02/24 14:49:17;;;;;;;6.93;2.37;;;;;;;;;;4972852;28;20038;-61
2023/02/24 14:51:44;;;;;;;2.67;1.90;;;;;;;;;;4972096;28;20497;-61
2023/02/24 14:54:16;;;;;;;3.57;2.20;;;;;;;;;;4972534;28;20023;-62
2023/02/24 14:56:43;;;;;;;7.50;2.60;;;;;;;;;;4972653;28;20023;-62
2023/02/24 14:59:19;;;;;;;9.10;2.73;;;;;;;;;;4974045;28;20046;-62
2023/02/24 15:01:48;;;;;;;2.97;1.90;;;;;;;;;;4971268;28;20027;-62
2023/02/24 15:04:15;;;;;;;4.47;2.03;;;;;;;;;;4969581;28;20034;-63
2023/02/24 15:06:42;;;;;;;2.83;1.97;;;;;;;;;;4969903;28;20042;-62
2023/02/24 15:09:29;;;;;;;3.17;1.73;;;;;;;;;;4972135;28;20077;-62
2023/02/24 15:11:56;;;;;;;3.50;1.43;;;;;;;;;;4974289;28;20094;-62
2023/02/24 15:14:24;;;;;;;1.27;0.93;;;;;;;;;;4974856;28;20015;-62
2023/02/24 15:16:52;;;;;;;3.23;1.87;;;;;;;;;;4974648;28;20031;-62
2023/02/24 15:19:22;;;;;;;3.83;1.80;;;;;;;;;;4976413;28;20477;-62
2023/02/24 15:21:49;;;;;;;4.33;2.50;;;;;;;;;;4972904;28;20050;-62
2023/02/24 15:24:20;;;;;;;4.70;2.37;;;;;;;;;;4971092;28;20027;-63
2023/02/24 15:26:53;;;;;;;7.17;2.27;;;;;;;;;;4970708;28;20026;-62
2023/02/24 15:29:21;;;;;;;3.53;2.13;;;;;;;;;;4970902;28;20093;-62
2023/02/24 15:31:50;;;;;;;3.90;1.87;;;;;;;;;;4974180;28;20389;-62
2023/02/24 15:34:21;;;;;;;1.87;1.20;;;;;;;;;;4975794;28;20065;-62
2023/02/24 15:36:50;;;;;;;2.57;1.40;;;;;;;;;;4976018;28;20023;-62
2023/02/24 15:39:22;;;;;;;4.37;2.13;;;;;;;;;;4975732;28;20149;-62
2023/02/24 15:41:49;;;;;;;5.10;1.67;;;;;;;;;;4976132;28;20034;-62
2023/02/24 15:44:26;;;;;;;7.07;1.80;;;;;;;;;;4971632;28;20035;-63
2023/02/24 15:46:53;;;;;;;3.27;1.57;;;;;;;;;;4970603;28;20123;-63
2023/02/24 15:49:20;;;;;;;4.63;2.20;;;;;;;;;;4970932;28;20035;-62